sensor_id;sensor_type;location;lat;lon;timestamp;temperature;humidity
13697;DHT22;6920;50.080;8.226;2022-12-31T00:01:24;10.30;99.90
13697;DHT22;6920;50.080;8.226;2022-12-31T00:03:52;10.40;99.90
13697;DHT22;6920;50.080;8.226;2022-12-31T00:06:20;10.50;99.90
13697;DHT22;6920;50.080;8.226;2022-12-31T00:08:49;10.50;99.90
13697;DHT22;6920;50.080;8.226;2022-12-31T00:13:45;10.50;99.90
13697;DHT22;6920;50.080;8.226;2022-12-31T00:16:14;10.50;99.90
13697;DHT22;6920;50.080;8.226;2022-12-31T00:18:43;10.70;99.90
13697;DHT22;6920;50.080;8.226;2022-12-31T00:21:10;10.90;99.90
13697;DHT22;6920;50.080;8.226;2022-12-31T00:23:37;10.80;99.90
13697;DHT22;6920;50.080;8.226;2022-12-31T00:26:07;10.90;99.90
13697;DHT22;6920;50.080;8.226;2022-12-31T00:28:36;10.90;99.90
13697;DHT22;6920;50.080;8.226;2022-12-31T00:31:09;11.10;99.90
13697;DHT22;6920;50.080;8.226;2022-12-31T00:33:36;11.20;99.90
13697;DHT22;6920;50.080;8.226;2022-12-31T00:36:05;11.40;99.90
13697;DHT22;6920;50.080;8.226;2022-12-31T00:38:33;11.40;99.90
13697;DHT22;6920;50.080;8.226;2022-12-31T00:41:00;11.40;99.90
13697;DHT22;6920;50.080;8.226;2022-12-31T00:43:27;11.50;99.90
13697;DHT22;6920;50.080;8.226;2022-12-31T00:45:54;11.50;99.90
13697;DHT22;6920;50.080;8.226;2022-12-31T00:48:22;11.50;99.90
13697;DHT22;6920;50.080;8.226;2022-12-31T00:50:50;11.70;99.90
13697;DHT22;6920;50.080;8.226;2022-12-31T00:55:44;11.70;99.90
13697;DHT22;6920;50.080;8.226;2022-12-31T00:58:11;11.80;99.90
13697;DHT22;6920;50.080;8.226;2022-12-31T01:00:39;11.80;99.90
13697;DHT22;6920;50.080;8.226;2022-12-31T01:03:07;11.90;99.90
13697;DHT22;6920;50.080;8.226;2022-12-31T01:05:35;11.90;99.90
13697;DHT22;6920;50.080;8.226;2022-12-31T01:08:03;12.00;99.90
13697;DHT22;6920;50.080;8.226;2022-12-31T01:10:30;11.90;99.90
13697;DHT22;6920;50.080;8.226;2022-12-31T01:15:42;12.00;99.90
13697;DHT22;6920;50.080;8.226;2022-12-31T01:18:09;11.90;99.90
13697;DHT22;6920;50.080;8.226;2022-12-31T01:20:40;12.00;99.90
13697;DHT22;6920;50.080;8.226;2022-12-31T01:23:09;11.90;99.90
13697;DHT22;6920;50.080;8.226;2022-12-31T01:25:37;11.90;99.90
13697;DHT22;6920;50.080;8.226;2022-12-31T01:28:07;12.10;99.90
13697;DHT22;6920;50.080;8.226;2022-12-31T01:30:37;12.20;99.90
13697;DHT22;6920;50.080;8.226;2022-12-31T01:33:04;12.20;99.90
13697;DHT22;6920;50.080;8.226;2022-12-31T01:35:33;12.30;99.90
13697;DHT22;6920;50.080;8.226;2022-12-31T01:38:02;12.30;99.90
13697;DHT22;6920;50.080;8.226;2022-12-31T01:40:35;12.30;99.90
13697;DHT22;6920;50.080;8.226;2022-12-31T01:43:05;12.40;99.90
13697;DHT22;6920;50.080;8.226;2022-12-31T01:48:04;12.40;99.90
13697;DHT22;6920;50.080;8.226;2022-12-31T01:50:32;12.40;99.90
13697;DHT22;6920;50.080;8.226;2022-12-31T01:53:04;12.50;99.90
13697;DHT22;6920;50.080;8.226;2022-12-31T01:55:34;12.60;99.90
13697;DHT22;6920;50.080;8.226;2022-12-31T01:58:05;12.60;99.90
13697;DHT22;6920;50.080;8.226;2022-12-31T02:00:33;12.70;99.90
13697;DHT22;6920;50.080;8.226;2022-12-31T02:03:00;12.70;99.90
13697;DHT22;6920;50.080;8.226;2022-12-31T02:05:31;12.70;99.90
13697;DHT22;6920;50.080;8.226;2022-12-31T02:07:59;12.80;99.90
13697;DHT22;6920;50.080;8.226;2022-12-31T02:10:29;12.90;99.90
13697;DHT22;6920;50.080;8.226;2022-12-31T02:12:56;12.90;99.90
13697;DHT22;6920;50.080;8.226;2022-12-31T02:15:29;12.90;99.90
13697;DHT22;6920;50.080;8.226;2022-12-31T02:18:06;12.90;99.90
13697;DHT22;6920;50.080;8.226;2022-12-31T02:26:54;12.90;99.90
13697;DHT22;6920;50.080;8.226;2022-12-31T02:30:08;12.90;99.90
13697;DHT22;6920;50.080;8.226;2022-12-31T02:32:49;13.00;99.90
13697;DHT22;6920;50.080;8.226;2022-12-31T02:35:21;13.00;99.90
13697;DHT22;6920;50.080;8.226;2022-12-31T02:37:52;13.00;99.90
13697;DHT22;6920;50.080;8.226;2022-12-31T02:40:22;13.00;99.90
13697;DHT22;6920;50.080;8.226;2022-12-31T02:42:49;12.90;99.90
13697;DHT22;6920;50.080;8.226;2022-12-31T02:45:21;13.00;99.90
13697;DHT22;6920;50.080;8.226;2022-12-31T02:47:56;13.00;99.90
13697;DHT22;6920;50.080;8.226;2022-12-31T02:50:35;13.00;99.90
13697;DHT22;6920;50.080;8.226;2022-12-31T02:53:16;13.10;99.90
13697;DHT22;6920;50.080;8.226;2022-12-31T02:55:51;13.10;99.90
13697;DHT22;6920;50.080;8.226;2022-12-31T02:58:28;13.10;99.90
13697;DHT22;6920;50.080;8.226;2022-12-31T03:01:16;13.10;99.90
13697;DHT22;6920;50.080;8.226;2022-12-31T03:04:02;13.10;99.90
13697;DHT22;6920;50.080;8.226;2022-12-31T03:06:51;13.20;99.90
13697;DHT22;6920;50.080;8.226;2022-12-31T03:09:18;13.10;99.90
13697;DHT22;6920;50.080;8.226;2022-12-31T03:11:45;13.10;99.90
13697;DHT22;6920;50.080;8.226;2022-12-31T03:14:30;13.20;99.90
13697;DHT22;6920;50.080;8.226;2022-12-31T03:16:58;13.20;99.90
13697;DHT22;6920;50.080;8.226;2022-12-31T03:19:25;13.20;99.90
13697;DHT22;6920;50.080;8.226;2022-12-31T03:22:11;13.20;99.90
13697;DHT22;6920;50.080;8.226;2022-12-31T03:24:54;13.30;99.90
13697;DHT22;6920;50.080;8.226;2022-12-31T03:27:39;13.30;99.90
13697;DHT22;6920;50.080;8.226;2022-12-31T03:30:07;13.30;99.90
13697;DHT22;6920;50.080;8.226;2022-12-31T03:32:36;13.40;99.90
13697;DHT22;6920;50.080;8.226;2022-12-31T03:35:04;13.40;99.90
13697;DHT22;6920;50.080;8.226;2022-12-31T03:37:31;13.40;99.90
13697;DHT22;6920;50.080;8.226;2022-12-31T03:39:58;13.40;99.90
13697;DHT22;6920;50.080;8.226;2022-12-31T03:42:25;13.40;99.90
13697;DHT22;6920;50.080;8.226;2022-12-31T03:44:52;13.50;99.90
13697;DHT22;6920;50.080;8.226;2022-12-31T03:47:19;13.50;99.90
13697;DHT22;6920;50.080;8.226;2022-12-31T03:49:48;13.50;99.90
13697;DHT22;6920;50.080;8.226;2022-12-31T03:52:15;13.50;99.90
13697;DHT22;6920;50.080;8.226;2022-12-31T03:54:42;13.60;99.90
13697;DHT22;6920;50.080;8.226;2022-12-31T03:57:09;13.60;99.90
13697;DHT22;6920;50.080;8.226;2022-12-31T03:59:37;13.60;99.90
13697;DHT22;6920;50.080;8.226;2022-12-31T04:02:04;13.60;99.90
13697;DHT22;6920;50.080;8.226;2022-12-31T04:04:31;13.70;99.90
13697;DHT22;6920;50.080;8.226;2022-12-31T04:07:00;13.70;99.90
13697;DHT22;6920;50.080;8.226;2022-12-31T04:09:27;13.70;99.90
13697;DHT22;6920;50.080;8.226;2022-12-31T04:14:21;13.70;99.90
13697;DHT22;6920;50.080;8.226;2022-12-31T04:16:48;13.70;99.90
13697;DHT22;6920;50.080;8.226;2022-12-31T04:19:15;13.70;99.90
13697;DHT22;6920;50.080;8.226;2022-12-31T04:21:42;13.60;99.90
13697;DHT22;6920;50.080;8.226;2022-12-31T04:24:11;13.60;99.90
13697;DHT22;6920;50.080;8.226;2022-12-31T04:26:38;13.60;99.90
13697;DHT22;6920;50.080;8.226;2022-12-31T04:29:05;13.60;99.90
13697;DHT22;6920;50.080;8.226;2022-12-31T04:31:32;13.60;99.90
13697;DHT22;6920;50.080;8.226;2022-12-31T04:33:59;13.70;99.90
13697;DHT22;6920;50.080;8.226;2022-12-31T04:36:27;13.70;99.90
13697;DHT22;6920;50.080;8.226;2022-12-31T04:38:54;13.80;99.90
13697;DHT22;6920;50.080;8.226;2022-12-31T04:41:22;13.70;99.90
13697;DHT22;6920;50.080;8.226;2022-12-31T04:43:53;13.70;99.90
13697;DHT22;6920;50.080;8.226;2022-12-31T04:46:22;13.80;99.90
13697;DHT22;6920;50.080;8.226;2022-12-31T04:48:50;13.80;99.90
13697;DHT22;6920;50.080;8.226;2022-12-31T04:51:17;13.80;99.90
13697;DHT22;6920;50.080;8.226;2022-12-31T04:53:45;13.90;99.90
13697;DHT22;6920;50.080;8.226;2022-12-31T04:56:12;13.90;99.90
13697;DHT22;6920;50.080;8.226;2022-12-31T04:58:41;13.80;99.90
13697;DHT22;6920;50.080;8.226;2022-12-31T05:01:08;13.90;99.90
13697;DHT22;6920;50.080;8.226;2022-12-31T05:03:35;13.90;99.90
13697;DHT22;6920;50.080;8.226;2022-12-31T05:06:04;13.90;99.90
13697;DHT22;6920;50.080;8.226;2022-12-31T05:08:32;13.90;99.90
13697;DHT22;6920;50.080;8.226;2022-12-31T05:10:59;13.90;99.90
13697;DHT22;6920;50.080;8.226;2022-12-31T05:13:26;13.90;99.90
13697;DHT22;6920;50.080;8.226;2022-12-31T05:15:55;13.80;99.90
13697;DHT22;6920;50.080;8.226;2022-12-31T05:18:23;13.80;99.90
13697;DHT22;6920;50.080;8.226;2022-12-31T05:20:50;13.80;99.90
13697;DHT22;6920;50.080;8.226;2022-12-31T05:25:45;13.80;99.90
13697;DHT22;6920;50.080;8.226;2022-12-31T05:28:13;13.70;99.90
13697;DHT22;6920;50.080;8.226;2022-12-31T05:30:40;13.70;99.90
13697;DHT22;6920;50.080;8.226;2022-12-31T05:33:09;13.70;99.90
13697;DHT22;6920;50.080;8.226;2022-12-31T05:35:36;13.80;99.90
13697;DHT22;6920;50.080;8.226;2022-12-31T05:38:03;13.80;99.90
13697;DHT22;6920;50.080;8.226;2022-12-31T05:40:30;13.80;99.90
13697;DHT22;6920;50.080;8.226;2022-12-31T05:42:57;13.80;99.90
13697;DHT22;6920;50.080;8.226;2022-12-31T05:45:24;13.80;99.90
13697;DHT22;6920;50.080;8.226;2022-12-31T05:47:52;13.80;99.90
13697;DHT22;6920;50.080;8.226;2022-12-31T05:50:20;13.90;99.90
13697;DHT22;6920;50.080;8.226;2022-12-31T05:52:47;13.90;99.90
13697;DHT22;6920;50.080;8.226;2022-12-31T05:55:14;13.90;99.90
13697;DHT22;6920;50.080;8.226;2022-12-31T05:57:41;13.90;99.90
13697;DHT22;6920;50.080;8.226;2022-12-31T06:00:09;13.90;99.90
13697;DHT22;6920;50.080;8.226;2022-12-31T06:02:37;13.90;99.90
13697;DHT22;6920;50.080;8.226;2022-12-31T06:05:04;13.90;99.90
13697;DHT22;6920;50.080;8.226;2022-12-31T06:07:33;14.00;99.90
13697;DHT22;6920;50.080;8.226;2022-12-31T06:10:00;14.10;99.90
13697;DHT22;6920;50.080;8.226;2022-12-31T06:12:28;14.20;99.90
13697;DHT22;6920;50.080;8.226;2022-12-31T06:14:55;14.20;99.90
13697;DHT22;6920;50.080;8.226;2022-12-31T06:17:22;14.10;99.90
13697;DHT22;6920;50.080;8.226;2022-12-31T06:19:49;14.20;99.90
13697;DHT22;6920;50.080;8.226;2022-12-31T06:22:16;14.20;99.90
13697;DHT22;6920;50.080;8.226;2022-12-31T06:24:44;14.20;99.90
13697;DHT22;6920;50.080;8.226;2022-12-31T06:27:12;14.70;99.90
13697;DHT22;6920;50.080;8.226;2022-12-31T06:29:39;14.30;99.90
13697;DHT22;6920;50.080;8.226;2022-12-31T06:32:06;14.30;99.90
13697;DHT22;6920;50.080;8.226;2022-12-31T06:34:33;14.30;99.90
13697;DHT22;6920;50.080;8.226;2022-12-31T06:37:00;14.30;99.90
13697;DHT22;6920;50.080;8.226;2022-12-31T06:39:27;14.30;99.90
13697;DHT22;6920;50.080;8.226;2022-12-31T06:41:55;14.30;99.90
13697;DHT22;6920;50.080;8.226;2022-12-31T06:44:22;14.40;99.90
13697;DHT22;6920;50.080;8.226;2022-12-31T06:46:50;14.40;99.90
13697;DHT22;6920;50.080;8.226;2022-12-31T06:49:17;14.40;99.90
13697;DHT22;6920;50.080;8.226;2022-12-31T06:51:44;14.40;99.90
13697;DHT22;6920;50.080;8.226;2022-12-31T06:54:12;14.40;99.90
13697;DHT22;6920;50.080;8.226;2022-12-31T06:56:40;14.50;99.90
13697;DHT22;6920;50.080;8.226;2022-12-31T06:59:21;14.50;99.90
13697;DHT22;6920;50.080;8.226;2022-12-31T07:02:09;14.50;99.90
13697;DHT22;6920;50.080;8.226;2022-12-31T07:05:01;14.50;99.90
13697;DHT22;6920;50.080;8.226;2022-12-31T07:07:37;14.40;99.90
13697;DHT22;6920;50.080;8.226;2022-12-31T07:10:16;14.50;99.90
13697;DHT22;6920;50.080;8.226;2022-12-31T07:12:59;14.50;99.90
13697;DHT22;6920;50.080;8.226;2022-12-31T07:15:42;14.50;99.90
13697;DHT22;6920;50.080;8.226;2022-12-31T07:18:19;14.50;99.90
13697;DHT22;6920;50.080;8.226;2022-12-31T07:20:50;14.40;99.90
13697;DHT22;6920;50.080;8.226;2022-12-31T07:23:17;14.40;99.90
13697;DHT22;6920;50.080;8.226;2022-12-31T07:25:51;14.50;99.90
13697;DHT22;6920;50.080;8.226;2022-12-31T07:28:32;14.50;99.90
13697;DHT22;6920;50.080;8.226;2022-12-31T07:31:06;14.50;99.90
13697;DHT22;6920;50.080;8.226;2022-12-31T07:33:49;14.60;99.90
13697;DHT22;6920;50.080;8.226;2022-12-31T07:36:28;14.50;99.90
13697;DHT22;6920;50.080;8.226;2022-12-31T07:39:04;14.60;99.90
13697;DHT22;6920;50.080;8.226;2022-12-31T07:41:47;14.70;99.90
13697;DHT22;6920;50.080;8.226;2022-12-31T07:44:26;14.60;99.90
13697;DHT22;6920;50.080;8.226;2022-12-31T07:46:58;14.70;99.90
13697;DHT22;6920;50.080;8.226;2022-12-31T07:49:28;14.70;99.90
13697;DHT22;6920;50.080;8.226;2022-12-31T07:51:56;14.70;99.90
13697;DHT22;6920;50.080;8.226;2022-12-31T07:56:50;14.80;99.90
13697;DHT22;6920;50.080;8.226;2022-12-31T07:59:30;14.80;99.90
13697;DHT22;6920;50.080;8.226;2022-12-31T08:02:05;14.90;99.90
13697;DHT22;6920;50.080;8.226;2022-12-31T08:04:41;14.90;99.90
13697;DHT22;6920;50.080;8.226;2022-12-31T08:07:22;14.90;99.90
13697;DHT22;6920;50.080;8.226;2022-12-31T08:09:58;15.00;99.90
13697;DHT22;6920;50.080;8.226;2022-12-31T08:12:33;15.00;99.90
13697;DHT22;6920;50.080;8.226;2022-12-31T08:15:01;14.90;99.90
13697;DHT22;6920;50.080;8.226;2022-12-31T08:17:30;14.90;99.90
13697;DHT22;6920;50.080;8.226;2022-12-31T08:19:57;14.90;99.90
13697;DHT22;6920;50.080;8.226;2022-12-31T08:22:41;14.90;99.90
13697;DHT22;6920;50.080;8.226;2022-12-31T08:25:16;15.00;99.90
13697;DHT22;6920;50.080;8.226;2022-12-31T08:27:49;15.00;99.90
13697;DHT22;6920;50.080;8.226;2022-12-31T08:30:20;14.90;99.90
13697;DHT22;6920;50.080;8.226;2022-12-31T08:33:04;14.90;99.90
13697;DHT22;6920;50.080;8.226;2022-12-31T08:35:51;14.90;99.90
13697;DHT22;6920;50.080;8.226;2022-12-31T08:38:26;14.90;99.90
13697;DHT22;6920;50.080;8.226;2022-12-31T08:41:02;14.90;99.90
13697;DHT22;6920;50.080;8.226;2022-12-31T08:43:39;14.80;99.90
13697;DHT22;6920;50.080;8.226;2022-12-31T08:46:14;14.80;99.90
13697;DHT22;6920;50.080;8.226;2022-12-31T08:48:44;14.90;99.90
13697;DHT22;6920;50.080;8.226;2022-12-31T08:51:16;14.80;99.90
13697;DHT22;6920;50.080;8.226;2022-12-31T08:53:45;14.90;99.90
13697;DHT22;6920;50.080;8.226;2022-12-31T08:56:21;14.80;99.90
13697;DHT22;6920;50.080;8.226;2022-12-31T08:58:54;14.80;99.90
13697;DHT22;6920;50.080;8.226;2022-12-31T09:01:26;14.80;99.90
13697;DHT22;6920;50.080;8.226;2022-12-31T09:04:05;14.90;99.90
13697;DHT22;6920;50.080;8.226;2022-12-31T09:06:38;14.90;99.90
13697;DHT22;6920;50.080;8.226;2022-12-31T09:09:15;14.90;99.90
13697;DHT22;6920;50.080;8.226;2022-12-31T09:11:53;14.90;99.90
13697;DHT22;6920;50.080;8.226;2022-12-31T09:14:40;14.90;99.90
13697;DHT22;6920;50.080;8.226;2022-12-31T09:17:21;14.90;99.90
13697;DHT22;6920;50.080;8.226;2022-12-31T09:19:53;15.00;99.90
13697;DHT22;6920;50.080;8.226;2022-12-31T09:22:20;15.00;99.90
13697;DHT22;6920;50.080;8.226;2022-12-31T09:24:48;15.00;99.90
13697;DHT22;6920;50.080;8.226;2022-12-31T09:27:20;15.00;99.90
13697;DHT22;6920;50.080;8.226;2022-12-31T09:29:56;15.00;99.90
13697;DHT22;6920;50.080;8.226;2022-12-31T09:32:32;14.90;99.90
13697;DHT22;6920;50.080;8.226;2022-12-31T09:35:05;15.00;99.90
13697;DHT22;6920;50.080;8.226;2022-12-31T09:37:42;15.10;99.90
13697;DHT22;6920;50.080;8.226;2022-12-31T09:52:27;15.20;99.90
13697;DHT22;6920;50.080;8.226;2022-12-31T09:55:12;15.20;99.90
13697;DHT22;6920;50.080;8.226;2022-12-31T09:57:57;15.20;99.90
13697;DHT22;6920;50.080;8.226;2022-12-31T10:00:32;15.30;99.90
13697;DHT22;6920;50.080;8.226;2022-12-31T10:03:22;15.30;99.90
13697;DHT22;6920;50.080;8.226;2022-12-31T10:06:20;15.30;99.90
13697;DHT22;6920;50.080;8.226;2022-12-31T10:09:02;15.30;99.90
13697;DHT22;6920;50.080;8.226;2022-12-31T10:11:42;15.40;99.90
13697;DHT22;6920;50.080;8.226;2022-12-31T10:14:24;15.40;99.90
13697;DHT22;6920;50.080;8.226;2022-12-31T10:17:05;15.40;99.90
13697;DHT22;6920;50.080;8.226;2022-12-31T10:20:03;15.40;99.90
13697;DHT22;6920;50.080;8.226;2022-12-31T10:22:42;15.40;99.90
13697;DHT22;6920;50.080;8.226;2022-12-31T10:25:25;15.40;99.90
13697;DHT22;6920;50.080;8.226;2022-12-31T10:27:58;15.50;99.90
13697;DHT22;6920;50.080;8.226;2022-12-31T10:30:31;15.50;99.90
13697;DHT22;6920;50.080;8.226;2022-12-31T10:33:07;15.60;99.90
13697;DHT22;6920;50.080;8.226;2022-12-31T10:35:41;15.80;99.90
13697;DHT22;6920;50.080;8.226;2022-12-31T10:38:18;15.80;99.90
13697;DHT22;6920;50.080;8.226;2022-12-31T10:53:23;16.20;99.90
13697;DHT22;6920;50.080;8.226;2022-12-31T11:02:27;16.40;99.90
13697;DHT22;6920;50.080;8.226;2022-12-31T11:08:15;16.50;99.90
13697;DHT22;6920;50.080;8.226;2022-12-31T11:11:09;16.40;99.90
13697;DHT22;6920;50.080;8.226;2022-12-31T11:14:09;16.40;99.90
13697;DHT22;6920;50.080;8.226;2022-12-31T11:19:37;16.40;99.90
13697;DHT22;6920;50.080;8.226;2022-12-31T11:22:27;16.40;99.90
13697;DHT22;6920;50.080;8.226;2022-12-31T11:25:10;16.60;99.90
13697;DHT22;6920;50.080;8.226;2022-12-31T11:27:56;16.60;99.90
13697;DHT22;6920;50.080;8.226;2022-12-31T11:30:28;16.70;99.90
13697;DHT22;6920;50.080;8.226;2022-12-31T11:33:10;16.70;99.90
13697;DHT22;6920;50.080;8.226;2022-12-31T11:35:54;16.70;99.90
13697;DHT22;6920;50.080;8.226;2022-12-31T11:38:29;16.50;99.90
13697;DHT22;6920;50.080;8.226;2022-12-31T11:41:00;16.50;99.90
13697;DHT22;6920;50.080;8.226;2022-12-31T11:43:37;16.40;99.90
13697;DHT22;6920;50.080;8.226;2022-12-31T11:46:25;16.50;99.90
13697;DHT22;6920;50.080;8.226;2022-12-31T11:49:10;16.50;99.90
13697;DHT22;6920;50.080;8.226;2022-12-31T11:51:51;16.60;99.90
13697;DHT22;6920;50.080;8.226;2022-12-31T11:54:57;16.70;99.90
13697;DHT22;6920;50.080;8.226;2022-12-31T11:57:33;16.60;99.90
13697;DHT22;6920;50.080;8.226;2022-12-31T12:00:05;16.60;99.90
13697;DHT22;6920;50.080;8.226;2022-12-31T12:02:42;16.60;99.90
13697;DHT22;6920;50.080;8.226;2022-12-31T12:05:14;16.70;99.90
13697;DHT22;6920;50.080;8.226;2022-12-31T12:10:20;16.70;99.90
13697;DHT22;6920;50.080;8.226;2022-12-31T12:12:48;16.70;99.90
13697;DHT22;6920;50.080;8.226;2022-12-31T12:15:20;16.70;99.90
13697;DHT22;6920;50.080;8.226;2022-12-31T12:17:55;16.70;99.90
13697;DHT22;6920;50.080;8.226;2022-12-31T12:20:28;16.80;99.90
13697;DHT22;6920;50.080;8.226;2022-12-31T12:22:57;16.80;99.90
13697;DHT22;6920;50.080;8.226;2022-12-31T12:25:35;16.70;99.90
13697;DHT22;6920;50.080;8.226;2022-12-31T12:28:16;16.70;99.90
13697;DHT22;6920;50.080;8.226;2022-12-31T12:30:45;16.70;99.90
13697;DHT22;6920;50.080;8.226;2022-12-31T12:33:19;16.70;99.90
13697;DHT22;6920;50.080;8.226;2022-12-31T12:35:46;16.70;99.90
13697;DHT22;6920;50.080;8.226;2022-12-31T12:38:15;16.70;99.90
13697;DHT22;6920;50.080;8.226;2022-12-31T12:40:53;16.60;99.90
13697;DHT22;6920;50.080;8.226;2022-12-31T12:43:22;16.60;99.90
13697;DHT22;6920;50.080;8.226;2022-12-31T12:45:57;16.50;99.90
13697;DHT22;6920;50.080;8.226;2022-12-31T12:48:30;16.50;99.90
13697;DHT22;6920;50.080;8.226;2022-12-31T12:50:59;16.50;99.90
13697;DHT22;6920;50.080;8.226;2022-12-31T12:53:34;16.40;99.90
13697;DHT22;6920;50.080;8.226;2022-12-31T12:56:10;16.50;99.90
13697;DHT22;6920;50.080;8.226;2022-12-31T12:58:51;16.40;99.90
13697;DHT22;6920;50.080;8.226;2022-12-31T13:01:26;16.40;99.90
13697;DHT22;6920;50.080;8.226;2022-12-31T13:04:19;16.30;99.90
13697;DHT22;6920;50.080;8.226;2022-12-31T13:07:01;16.40;99.90
13697;DHT22;6920;50.080;8.226;2022-12-31T13:09:41;16.30;99.90
13697;DHT22;6920;50.080;8.226;2022-12-31T13:12:19;16.30;99.90
13697;DHT22;6920;50.080;8.226;2022-12-31T13:14:55;16.30;99.90
13697;DHT22;6920;50.080;8.226;2022-12-31T13:17:48;16.30;99.90
13697;DHT22;6920;50.080;8.226;2022-12-31T13:20:24;16.40;99.90
13697;DHT22;6920;50.080;8.226;2022-12-31T13:22:55;16.40;99.90
13697;DHT22;6920;50.080;8.226;2022-12-31T13:25:30;16.40;99.90
13697;DHT22;6920;50.080;8.226;2022-12-31T13:28:03;16.40;99.90
13697;DHT22;6920;50.080;8.226;2022-12-31T13:30:36;16.40;99.90
13697;DHT22;6920;50.080;8.226;2022-12-31T13:33:13;16.40;99.90
13697;DHT22;6920;50.080;8.226;2022-12-31T13:35:44;16.40;99.90
13697;DHT22;6920;50.080;8.226;2022-12-31T13:38:16;16.40;99.90
13697;DHT22;6920;50.080;8.226;2022-12-31T13:40:48;16.40;99.90
13697;DHT22;6920;50.080;8.226;2022-12-31T13:43:24;16.40;99.90
13697;DHT22;6920;50.080;8.226;2022-12-31T13:46:02;16.40;99.90
13697;DHT22;6920;50.080;8.226;2022-12-31T13:48:36;16.50;99.90
13697;DHT22;6920;50.080;8.226;2022-12-31T13:51:12;16.40;99.90
13697;DHT22;6920;50.080;8.226;2022-12-31T13:53:46;16.40;99.90
13697;DHT22;6920;50.080;8.226;2022-12-31T13:56:18;16.40;99.90
13697;DHT22;6920;50.080;8.226;2022-12-31T13:58:52;16.40;99.90
13697;DHT22;6920;50.080;8.226;2022-12-31T14:01:23;16.30;99.90
13697;DHT22;6920;50.080;8.226;2022-12-31T14:03:57;16.30;99.90
13697;DHT22;6920;50.080;8.226;2022-12-31T14:06:30;16.30;99.90
13697;DHT22;6920;50.080;8.226;2022-12-31T14:08:59;16.30;99.90
13697;DHT22;6920;50.080;8.226;2022-12-31T14:11:40;16.30;99.90
13697;DHT22;6920;50.080;8.226;2022-12-31T14:14:18;16.20;99.90
13697;DHT22;6920;50.080;8.226;2022-12-31T14:16:53;16.10;99.90
13697;DHT22;6920;50.080;8.226;2022-12-31T14:19:34;16.10;99.90
13697;DHT22;6920;50.080;8.226;2022-12-31T14:22:07;16.20;99.90
13697;DHT22;6920;50.080;8.226;2022-12-31T14:24:43;16.10;99.90
13697;DHT22;6920;50.080;8.226;2022-12-31T14:27:15;16.00;99.90
13697;DHT22;6920;50.080;8.226;2022-12-31T14:29:46;16.00;99.90
13697;DHT22;6920;50.080;8.226;2022-12-31T14:32:47;16.10;99.90
13697;DHT22;6920;50.080;8.226;2022-12-31T14:35:35;16.00;99.90
13697;DHT22;6920;50.080;8.226;2022-12-31T14:38:10;16.00;99.90
13697;DHT22;6920;50.080;8.226;2022-12-31T14:40:47;15.90;99.90
13697;DHT22;6920;50.080;8.226;2022-12-31T14:43:27;15.80;99.90
13697;DHT22;6920;50.080;8.226;2022-12-31T14:46:06;15.80;99.90
13697;DHT22;6920;50.080;8.226;2022-12-31T14:48:45;15.70;99.90
13697;DHT22;6920;50.080;8.226;2022-12-31T14:51:26;15.70;99.90
13697;DHT22;6920;50.080;8.226;2022-12-31T14:53:54;15.70;99.90
13697;DHT22;6920;50.080;8.226;2022-12-31T14:56:49;15.60;99.90
13697;DHT22;6920;50.080;8.226;2022-12-31T14:59:25;15.60;99.90
13697;DHT22;6920;50.080;8.226;2022-12-31T15:01:54;15.60;99.90
13697;DHT22;6920;50.080;8.226;2022-12-31T15:04:32;15.60;99.90
13697;DHT22;6920;50.080;8.226;2022-12-31T15:07:10;15.50;99.90
13697;DHT22;6920;50.080;8.226;2022-12-31T15:09:58;15.60;99.90
13697;DHT22;6920;50.080;8.226;2022-12-31T15:13:25;15.50;99.90
13697;DHT22;6920;50.080;8.226;2022-12-31T15:19:28;15.30;99.90
13697;DHT22;6920;50.080;8.226;2022-12-31T15:22:23;15.30;99.90
13697;DHT22;6920;50.080;8.226;2022-12-31T15:24:52;15.30;99.90
13697;DHT22;6920;50.080;8.226;2022-12-31T15:27:32;15.20;99.90
13697;DHT22;6920;50.080;8.226;2022-12-31T15:30:03;15.10;99.90
13697;DHT22;6920;50.080;8.226;2022-12-31T15:32:38;15.10;99.90
13697;DHT22;6920;50.080;8.226;2022-12-31T15:35:25;15.00;99.90
13697;DHT22;6920;50.080;8.226;2022-12-31T15:38:16;15.00;99.90
13697;DHT22;6920;50.080;8.226;2022-12-31T15:40:45;14.90;99.90
13697;DHT22;6920;50.080;8.226;2022-12-31T15:43:28;14.80;99.90
13697;DHT22;6920;50.080;8.226;2022-12-31T15:45:59;14.80;99.90
13697;DHT22;6920;50.080;8.226;2022-12-31T15:48:34;14.70;99.90
13697;DHT22;6920;50.080;8.226;2022-12-31T15:51:07;14.60;99.90
13697;DHT22;6920;50.080;8.226;2022-12-31T15:53:41;14.40;99.90
13697;DHT22;6920;50.080;8.226;2022-12-31T15:56:15;14.40;99.90
13697;DHT22;6920;50.080;8.226;2022-12-31T15:58:46;14.30;99.90
13697;DHT22;6920;50.080;8.226;2022-12-31T16:01:20;15.10;99.90
13697;DHT22;6920;50.080;8.226;2022-12-31T16:03:55;14.10;99.90
13697;DHT22;6920;50.080;8.226;2022-12-31T16:06:25;14.00;99.90
13697;DHT22;6920;50.080;8.226;2022-12-31T16:08:54;14.00;99.90
13697;DHT22;6920;50.080;8.226;2022-12-31T16:11:22;13.90;99.90
13697;DHT22;6920;50.080;8.226;2022-12-31T16:13:52;13.80;99.90
13697;DHT22;6920;50.080;8.226;2022-12-31T16:16:33;13.70;99.90
13697;DHT22;6920;50.080;8.226;2022-12-31T16:19:13;13.80;99.90
13697;DHT22;6920;50.080;8.226;2022-12-31T16:21:47;13.70;99.90
13697;DHT22;6920;50.080;8.226;2022-12-31T16:24:26;13.60;99.90
13697;DHT22;6920;50.080;8.226;2022-12-31T16:26:56;13.60;99.90
13697;DHT22;6920;50.080;8.226;2022-12-31T16:29:25;13.50;99.90
13697;DHT22;6920;50.080;8.226;2022-12-31T16:31:54;13.50;99.90
13697;DHT22;6920;50.080;8.226;2022-12-31T16:34:23;13.50;99.90
13697;DHT22;6920;50.080;8.226;2022-12-31T16:36:55;13.50;99.90
13697;DHT22;6920;50.080;8.226;2022-12-31T16:39:26;13.40;99.90
13697;DHT22;6920;50.080;8.226;2022-12-31T16:42:07;13.30;99.90
13697;DHT22;6920;50.080;8.226;2022-12-31T16:47:05;13.10;99.90
13697;DHT22;6920;50.080;8.226;2022-12-31T16:49:37;13.20;99.90
13697;DHT22;6920;50.080;8.226;2022-12-31T16:52:14;13.20;99.90
13697;DHT22;6920;50.080;8.226;2022-12-31T16:54:46;13.10;99.90
13697;DHT22;6920;50.080;8.226;2022-12-31T16:57:19;13.00;99.90
13697;DHT22;6920;50.080;8.226;2022-12-31T16:59:48;12.90;99.90
13697;DHT22;6920;50.080;8.226;2022-12-31T17:02:24;12.90;99.90
13697;DHT22;6920;50.080;8.226;2022-12-31T17:04:53;12.90;99.90
13697;DHT22;6920;50.080;8.226;2022-12-31T17:07:35;12.80;99.90
13697;DHT22;6920;50.080;8.226;2022-12-31T17:10:15;12.70;99.90
13697;DHT22;6920;50.080;8.226;2022-12-31T17:12:46;12.70;99.90
13697;DHT22;6920;50.080;8.226;2022-12-31T17:15:20;12.50;99.90
13697;DHT22;6920;50.080;8.226;2022-12-31T17:17:54;12.40;99.90
13697;DHT22;6920;50.080;8.226;2022-12-31T17:20:25;12.40;99.90
13697;DHT22;6920;50.080;8.226;2022-12-31T17:22:57;12.40;99.90
13697;DHT22;6920;50.080;8.226;2022-12-31T17:25:26;12.30;99.90
13697;DHT22;6920;50.080;8.226;2022-12-31T17:27:56;12.10;99.90
13697;DHT22;6920;50.080;8.226;2022-12-31T17:30:39;12.10;99.90
13697;DHT22;6920;50.080;8.226;2022-12-31T17:33:31;11.90;99.90
13697;DHT22;6920;50.080;8.226;2022-12-31T17:36:21;11.80;99.90